Time;durP1;ratioP1;P1;durP2;ratioP2;P2;SDS_P1;SDS_P2;PMS_P1;PMS_P2;Temp;Humidity;BMP_temperature;BMP_pressure;BME280_temperature;BME280_humidity;BME280_pressure;Samples;Min_cycle;Max_cycle;Signal;HPM_P1;HPM_P2
2023/01/09 00:00:40;;;;;;;25.20;19.05;;;8.80;99.90;;;;;;5095476;28;20633;-82
2023/01/09 00:03:06;;;;;;;25.38;18.63;;;8.80;99.90;;;;;;5095398;28;20188;-83
2023/01/09 00:05:32;;;;;;;23.40;18.90;;;8.80;99.90;;;;;;5094038;28;20191;-83
2023/01/09 00:07:58;;;;;;;28.93;19.90;;;8.80;99.90;;;;;;5095335;28;20279;-83
2023/01/09 00:10:23;;;;;;;24.63;18.93;;;8.90;99.90;;;;;;5094073;28;20175;-84
2023/01/09 00:12:49;;;;;;;21.60;19.03;;;8.80;99.90;;;;;;5095241;28;20565;-83
2023/01/09 00:15:15;;;;;;;28.67;17.63;;;8.70;99.90;;;;;;5094175;28;20694;-82
2023/01/09 00:17:41;;;;;;;29.03;18.40;;;8.80;99.90;;;;;;5095008;28;20188;-84
2023/01/09 00:20:09;;;;;;;24.93;18.20;;;8.80;99.90;;;;;;5095065;28;20416;-84
2023/01/09 00:22:36;;;;;;;28.33;19.13;;;8.80;99.90;;;;;;5093726;28;20227;-82
2023/01/09 00:25:02;;;;;;;22.73;17.95;;;8.80;99.90;;;;;;5094933;28;20179;-84
2023/01/09 00:27:31;;;;;;;25.50;18.57;;;8.80;99.90;;;;;;5095265;28;20657;-83
2023/01/09 00:29:57;;;;;;;22.02;17.13;;;8.80;99.90;;;;;;5093821;28;20471;-83
2023/01/09 00:32:23;;;;;;;25.75;19.42;;;8.80;99.90;;;;;;5094810;28;20188;-84
2023/01/09 00:34:49;;;;;;;24.30;18.70;;;8.80;99.90;;;;;;5093670;28;20609;-82
2023/01/09 00:37:15;;;;;;;25.67;17.65;;;8.70;99.90;;;;;;5093438;28;20473;-83
2023/01/09 00:39:42;;;;;;;26.33;17.83;;;8.70;99.90;;;;;;5095004;28;20216;-82
2023/01/09 00:42:13;;;;;;;26.75;18.55;;;8.70;99.90;;;;;;5094715;28;20222;-83
2023/01/09 00:45:00;;;;;;;27.30;19.52;;;8.80;99.90;;;;;;5094596;28;20263;-84
2023/01/09 00:47:31;;;;;;;26.27;17.70;;;8.80;99.90;;;;;;5093304;28;20200;-84
2023/01/09 00:50:04;;;;;;;23.17;17.70;;;8.70;99.90;;;;;;5095042;28;20191;-84
2023/01/09 00:52:32;;;;;;;26.63;18.13;;;8.80;99.90;;;;;;5094535;28;20193;-83
2023/01/09 00:54:58;;;;;;;22.48;17.65;;;8.70;99.90;;;;;;5093064;28;20232;-82
2023/01/09 00:57:24;;;;;;;23.15;17.40;;;8.70;99.90;;;;;;5093136;28;20616;-83
2023/01/09 00:59:51;;;;;;;22.87;16.33;;;8.70;99.90;;;;;;5094777;28;20246;-83
2023/01/09 01:02:17;;;;;;;23.35;17.25;;;8.70;99.90;;;;;;5094042;28;20196;-83
2023/01/09 01:07:38;;;;;;;21.17;16.05;;;8.70;99.90;;;;;;5094345;28;20734;-83
2023/01/09 01:10:24;;;;;;;21.10;16.58;;;8.70;99.90;;;;;;5094809;28;20180;-83
2023/01/09 01:12:50;;;;;;;23.27;16.73;;;8.70;99.90;;;;;;5092909;28;20212;-83
2023/01/09 01:15:17;;;;;;;24.35;17.88;;;8.60;99.90;;;;;;5092778;28;20176;-83
2023/01/09 01:17:43;;;;;;;25.48;17.60;;;8.60;99.90;;;;;;5094024;28;20200;-83
2023/01/09 01:20:12;;;;;;;24.10;17.50;;;8.60;99.90;;;;;;5093047;28;20181;-82
2023/01/09 01:22:41;;;;;;;22.60;16.15;;;8.60;99.90;;;;;;5093993;28;20685;-83
2023/01/09 01:25:06;;;;;;;29.50;18.95;;;8.60;99.90;;;;;;5093017;28;20259;-84
2023/01/09 01:27:32;;;;;;;22.13;15.97;;;8.60;99.90;;;;;;5092557;28;20273;-83
2023/01/09 01:29:58;;;;;;;23.67;17.90;;;8.60;99.90;;;;;;5094323;28;20902;-84
2023/01/09 01:32:23;;;;;;;24.33;18.00;;;8.60;99.90;;;;;;5093892;28;20246;-83
2023/01/09 01:34:49;;;;;;;23.43;17.57;;;8.60;99.90;;;;;;5094266;28;20168;-83
2023/01/09 01:37:15;;;;;;;22.57;16.77;;;8.60;99.90;;;;;;5093888;28;20616;-84
2023/01/09 01:39:41;;;;;;;25.93;17.63;;;8.60;99.90;;;;;;5092595;28;20244;-84
2023/01/09 01:42:06;;;;;;;25.73;17.30;;;8.50;99.90;;;;;;5093801;28;20251;-83
2023/01/09 01:45:08;;;;;;;21.20;16.80;;;8.50;99.90;;;;;;5092672;28;20417;-83
2023/01/09 01:47:45;;;;;;;21.35;15.77;;;8.50;99.90;;;;;;5092380;28;20234;-83
2023/01/09 01:50:23;;;;;;;22.73;15.68;;;8.50;99.90;;;;;;5094239;28;20550;-83
2023/01/09 01:53:17;;;;;;;25.25;17.13;;;8.50;99.90;;;;;;5093728;28;20200;-83
2023/01/09 01:55:53;;;;;;;25.23;17.33;;;8.50;99.90;;;;;;5090146;28;20282;-83
2023/01/09 01:58:19;;;;;;;25.55;16.88;;;8.40;99.90;;;;;;5093473;28;20547;-83
2023/01/09 02:00:46;;;;;;;21.30;16.90;;;8.40;99.90;;;;;;5092435;28;20176;-82
2023/01/09 02:03:16;;;;;;;22.17;16.95;;;8.40;99.90;;;;;;5093717;28;20929;-83
2023/01/09 02:05:42;;;;;;;21.25;15.90;;;8.40;99.90;;;;;;5092407;28;20172;-84
2023/01/09 02:08:08;;;;;;;24.40;15.68;;;8.30;99.90;;;;;;5093345;28;20215;-83
2023/01/09 02:10:36;;;;;;;24.80;17.10;;;8.30;99.90;;;;;;5093586;28;20664;-83
2023/01/09 02:13:02;;;;;;;23.17;17.15;;;8.30;99.90;;;;;;5093544;28;20201;-83
2023/01/09 02:15:36;;;;;;;22.17;16.63;;;8.30;99.90;;;;;;5094707;28;20173;-83
2023/01/09 02:18:21;;;;;;;25.13;16.52;;;8.30;99.90;;;;;;5097462;28;20208;-83
2023/01/09 02:21:09;;;;;;;23.27;16.65;;;8.30;99.90;;;;;;5097540;28;20204;-83
2023/01/09 02:23:50;;;;;;;25.83;17.35;;;8.30;99.90;;;;;;5096045;28;20681;-83
2023/01/09 02:26:40;;;;;;;24.08;16.65;;;8.20;99.90;;;;;;5097332;28;20184;-83
2023/01/09 02:29:27;;;;;;;24.95;16.80;;;8.20;99.90;;;;;;5097573;28;20599;-83
2023/01/09 02:31:59;;;;;;;26.17;18.13;;;8.20;99.90;;;;;;5097214;28;20168;-83
2023/01/09 02:34:40;;;;;;;24.63;17.77;;;8.20;99.90;;;;;;5097508;28;20204;-84
2023/01/09 02:37:14;;;;;;;20.85;15.48;;;8.20;99.90;;;;;;5097109;28;20237;-83
2023/01/09 02:39:51;;;;;;;21.38;16.10;;;8.20;99.90;;;;;;5096977;28;20211;-83
2023/01/09 02:42:26;;;;;;;23.45;16.40;;;8.20;99.90;;;;;;5095684;28;20249;-83
2023/01/09 02:44:52;;;;;;;22.10;17.27;;;8.20;99.90;;;;;;5097056;28;20203;-83
2023/01/09 02:47:19;;;;;;;25.35;18.13;;;8.20;99.90;;;;;;5096860;28;20740;-83
2023/01/09 02:49:53;;;;;;;23.77;16.88;;;8.30;99.90;;;;;;5097285;28;20164;-83
2023/01/09 02:52:37;;;;;;;24.83;17.70;;;8.30;99.90;;;;;;5095687;28;20317;-83
2023/01/09 02:55:21;;;;;;;23.75;15.50;;;8.40;99.90;;;;;;5096911;28;20263;-83
2023/01/09 02:57:47;;;;;;;23.70;17.05;;;8.30;99.90;;;;;;5096608;28;20267;-83
2023/01/09 03:00:39;;;;;;;23.60;15.90;;;8.40;99.90;;;;;;5095670;28;20250;-83
2023/01/09 03:03:43;;;;;;;25.70;16.77;;;8.40;99.90;;;;;;5095320;28;20200;-84
2023/01/09 03:06:37;;;;;;;24.95;15.68;;;8.40;99.90;;;;;;5096719;28;20180;-83
2023/01/09 03:09:26;;;;;;;24.00;16.85;;;8.30;99.90;;;;;;5095389;28;20250;-83
2023/01/09 03:11:58;;;;;;;19.33;14.73;;;8.30;99.90;;;;;;5095217;28;20645;-83
2023/01/09 03:14:25;;;;;;;24.60;15.55;;;8.30;99.90;;;;;;5096324;28;20535;-83
2023/01/09 03:17:00;;;;;;;22.45;15.57;;;8.30;99.90;;;;;;5094960;28;20228;-83
2023/01/09 03:19:29;;;;;;;23.95;16.10;;;8.30;99.90;;;;;;5096544;28;20212;-83
2023/01/09 03:21:56;;;;;;;22.95;16.90;;;8.20;99.90;;;;;;5096336;28;20188;-84
2023/01/09 03:24:21;;;;;;;24.15;18.15;;;8.10;99.90;;;;;;5096509;28;20199;-83
2023/01/09 03:26:47;;;;;;;25.03;17.57;;;8.10;99.90;;;;;;5096156;28;20176;-82
2023/01/09 03:29:13;;;;;;;23.60;17.20;;;8.10;99.90;;;;;;5096329;28;20203;-82
2023/01/09 03:31:38;;;;;;;20.83;16.00;;;8.00;99.90;;;;;;5096046;28;20212;-82
2023/01/09 03:34:04;;;;;;;25.53;16.33;;;8.00;99.90;;;;;;5096302;28;20197;-83
2023/01/09 03:36:30;;;;;;;24.10;16.70;;;7.90;99.90;;;;;;5095997;28;20203;-83
2023/01/09 03:38:55;;;;;;;28.07;17.07;;;8.00;99.90;;;;;;5095703;28;20223;-83
2023/01/09 03:41:21;;;;;;;21.20;15.70;;;8.00;99.90;;;;;;5094602;28;20641;-84
2023/01/09 03:43:47;;;;;;;23.60;16.93;;;8.00;99.90;;;;;;5095983;28;20188;-83
2023/01/09 03:46:15;;;;;;;24.67;16.65;;;8.00;99.90;;;;;;5094534;28;20181;-83
2023/01/09 03:48:41;;;;;;;24.20;16.25;;;8.00;99.90;;;;;;5095770;28;20588;-83
2023/01/09 03:51:06;;;;;;;24.73;16.70;;;8.00;99.90;;;;;;5095773;28;20185;-84
2023/01/09 03:53:32;;;;;;;23.30;17.40;;;8.00;99.90;;;;;;5094340;28;20460;-83
2023/01/09 03:55:58;;;;;;;24.87;18.17;;;7.90;99.90;;;;;;5094418;28;20620;-82
2023/01/09 03:58:25;;;;;;;27.63;17.83;;;7.90;99.90;;;;;;5094065;28;20212;-84
2023/01/09 04:00:55;;;;;;;23.00;16.65;;;7.80;99.90;;;;;;5094227;28;20233;-83
2023/01/09 04:03:21;;;;;;;23.73;16.42;;;7.80;99.90;;;;;;5095360;28;20737;-83
2023/01/09 04:05:48;;;;;;;25.97;17.50;;;7.80;99.90;;;;;;5095397;28;20255;-83
2023/01/09 04:08:14;;;;;;;24.65;17.58;;;7.80;99.90;;;;;;5093864;28;20207;-83
2023/01/09 04:10:44;;;;;;;25.52;17.88;;;7.80;99.90;;;;;;5095231;28;20179;-83
2023/01/09 04:13:09;;;;;;;22.67;15.60;;;7.90;99.90;;;;;;5095164;28;20196;-83
2023/01/09 04:15:35;;;;;;;26.10;16.60;;;8.00;99.90;;;;;;5093919;28;20187;-82
2023/01/09 04:18:02;;;;;;;28.60;16.50;;;7.90;99.90;;;;;;5093795;28;20569;-84
2023/01/09 04:20:28;;;;;;;23.73;15.80;;;7.90;99.90;;;;;;5095669;28;20645;-82
2023/01/09 04:22:54;;;;;;;26.30;18.60;;;8.00;99.90;;;;;;5093727;28;20232;-82
2023/01/09 04:25:21;;;;;;;28.17;18.40;;;8.00;99.90;;;;;;5093681;28;20984;-84
2023/01/09 04:27:47;;;;;;;26.35;17.70;;;8.00;99.90;;;;;;5094986;28;20189;-83
2023/01/09 04:30:13;;;;;;;24.73;18.10;;;8.00;99.90;;;;;;5093936;28;20177;-83
2023/01/09 04:32:39;;;;;;;27.27;18.75;;;7.90;99.90;;;;;;5094837;28;20193;-83
2023/01/09 04:35:06;;;;;;;26.50;19.40;;;7.70;99.90;;;;;;5093706;28;20176;-83
2023/01/09 04:37:31;;;;;;;26.38;19.00;;;7.50;99.90;;;;;;5094270;28;20512;-83
2023/01/09 04:39:57;;;;;;;24.37;16.97;;;7.50;99.90;;;;;;5093576;28;20732;-83
2023/01/09 04:42:23;;;;;;;25.63;17.53;;;7.50;99.90;;;;;;5094679;28;20545;-83
2023/01/09 04:44:52;;;;;;;27.77;17.60;;;7.40;99.90;;;;;;5093616;28;20256;-82
2023/01/09 04:47:19;;;;;;;23.58;17.30;;;7.40;99.90;;;;;;5094494;28;20898;-84
2023/01/09 04:49:44;;;;;;;27.02;17.85;;;7.30;99.90;;;;;;5094971;28;20184;-83
2023/01/09 04:52:10;;;;;;;27.50;18.10;;;7.30;99.90;;;;;;5093241;28;20203;-83
2023/01/09 04:54:38;;;;;;;24.40;17.40;;;7.40;99.90;;;;;;5094466;28;20313;-83
2023/01/09 04:57:03;;;;;;;24.65;16.90;;;7.30;99.90;;;;;;5093232;28;20645;-83
2023/01/09 04:59:29;;;;;;;25.57;17.50;;;7.20;99.90;;;;;;5094355;28;20262;-83
2023/01/09 05:01:57;;;;;;;20.63;16.30;;;7.30;99.90;;;;;;5094235;28;20208;-83
2023/01/09 05:04:23;;;;;;;25.13;18.05;;;7.30;99.90;;;;;;5094695;28;20196;-83
2023/01/09 05:06:48;;;;;;;25.70;18.45;;;7.30;99.90;;;;;;5094323;28;20252;-82
2023/01/09 05:09:14;;;;;;;28.60;19.33;;;7.30;99.90;;;;;;5094413;28;20307;-84
2023/01/09 05:11:40;;;;;;;24.85;17.40;;;7.20;99.90;;;;;;5094161;28;20176;-82
2023/01/09 05:14:06;;;;;;;26.10;18.27;;;7.20;99.90;;;;;;5094002;28;20249;-83
2023/01/09 05:16:32;;;;;;;28.40;17.67;;;7.20;99.90;;;;;;5092808;28;20583;-83
2023/01/09 05:18:59;;;;;;;22.23;16.20;;;7.20;99.90;;;;;;5094321;28;20573;-84
2023/01/09 05:21:34;;;;;;;27.23;17.63;;;7.20;99.90;;;;;;5092591;28;20728;-83
2023/01/09 05:23:59;;;;;;;23.83;17.08;;;7.20;99.90;;;;;;5095335;28;20201;-83
2023/01/09 05:26:30;;;;;;;24.40;17.30;;;7.20;99.90;;;;;;5093566;28;20705;-84
2023/01/09 05:28:56;;;;;;;25.75;17.02;;;7.30;99.90;;;;;;5113684;28;20476;-84
2023/01/09 05:31:22;;;;;;;25.03;16.30;;;7.20;99.90;;;;;;5111283;28;20211;-84
2023/01/09 05:33:48;;;;;;;26.33;17.45;;;7.20;99.90;;;;;;5110430;28;20485;-83
2023/01/09 05:36:14;;;;;;;23.63;17.02;;;7.20;99.90;;;;;;5104721;28;20259;-84
2023/01/09 05:38:40;;;;;;;23.53;16.83;;;7.30;99.90;;;;;;5099789;28;20306;-84
2023/01/09 05:41:06;;;;;;;24.20;17.97;;;7.30;99.90;;;;;;5112271;28;20186;-81
2023/01/09 05:43:32;;;;;;;24.60;17.40;;;7.30;99.90;;;;;;5112761;28;20195;-81
2023/01/09 05:45:58;;;;;;;26.98;17.85;;;7.30;99.90;;;;;;5113686;28;20171;-82
2023/01/09 05:48:24;;;;;;;25.87;17.73;;;7.30;99.90;;;;;;5093672;28;20718;-82
2023/01/09 05:50:49;;;;;;;25.67;18.33;;;7.30;99.90;;;;;;5095613;28;20238;-81
2023/01/09 05:53:15;;;;;;;24.57;18.13;;;7.30;99.90;;;;;;5096453;28;20437;-82
2023/01/09 05:55:41;;;;;;;24.50;18.00;;;7.30;99.90;;;;;;5097544;28;20252;-81
2023/01/09 05:58:07;;;;;;;28.77;18.27;;;7.30;99.90;;;;;;5111337;28;20238;-81
2023/01/09 06:00:32;;;;;;;26.53;17.53;;;7.40;99.90;;;;;;5116903;28;21041;-80
2023/01/09 06:02:58;;;;;;;29.67;19.43;;;7.40;99.90;;;;;;5117991;28;20180;-82
2023/01/09 06:05:24;;;;;;;30.23;17.25;;;7.50;99.90;;;;;;5104731;28;20246;-81
2023/01/09 06:07:50;;;;;;;28.03;17.23;;;7.50;99.90;;;;;;5103477;28;20283;-82
2023/01/09 06:10:16;;;;;;;25.63;18.50;;;7.50;99.90;;;;;;5096869;28;20279;-82
2023/01/09 06:12:46;;;;;;;31.42;18.13;;;7.50;99.90;;;;;;5104938;28;20200;-81
2023/01/09 06:15:14;;;;;;;27.40;17.55;;;7.50;99.90;;;;;;5109708;28;20276;-81
2023/01/09 06:17:40;;;;;;;28.77;17.95;;;7.50;99.90;;;;;;5116153;28;20200;-82
2023/01/09 06:20:06;;;;;;;24.40;19.30;;;7.50;99.90;;;;;;5108358;28;20219;-82
2023/01/09 06:22:32;;;;;;;29.20;18.63;;;7.50;99.90;;;;;;5105700;28;20246;-82
2023/01/09 06:24:58;;;;;;;26.30;18.03;;;7.50;99.90;;;;;;5110516;28;20200;-82
2023/01/09 06:27:23;;;;;;;26.47;18.97;;;7.40;99.90;;;;;;5116170;28;20207;-82
2023/01/09 06:29:49;;;;;;;28.07;18.77;;;7.40;99.90;;;;;;5105726;28;20184;-82
2023/01/09 06:32:15;;;;;;;28.77;19.73;;;7.40;99.90;;;;;;5101502;28;20212;-82
2023/01/09 06:34:41;;;;;;;22.10;16.50;;;7.40;99.90;;;;;;5103104;28;20244;-81
2023/01/09 06:37:06;;;;;;;26.13;17.92;;;7.40;99.90;;;;;;5102688;28;20191;-83
2023/01/09 06:39:32;;;;;;;32.27;19.20;;;7.40;99.90;;;;;;5113426;28;20227;-83
2023/01/09 06:41:58;;;;;;;26.07;18.67;;;7.40;99.90;;;;;;5095825;28;20229;-82
2023/01/09 06:44:23;;;;;;;31.87;20.63;;;7.40;99.90;;;;;;5096168;28;20180;-82
2023/01/09 06:46:49;;;;;;;25.53;16.33;;;7.40;99.90;;;;;;5096693;28;20180;-81
2023/01/09 06:49:16;;;;;;;28.20;19.20;;;7.40;99.90;;;;;;5103040;28;20203;-82
2023/01/09 06:51:42;;;;;;;27.25;18.52;;;7.40;99.90;;;;;;5094042;28;20180;-80
2023/01/09 06:54:08;;;;;;;28.40;18.50;;;7.40;99.90;;;;;;5092217;28;20571;-82
2023/01/09 06:56:33;;;;;;;30.27;21.17;;;7.40;99.90;;;;;;5096956;28;20274;-81
2023/01/09 06:59:00;;;;;;;22.90;17.30;;;7.40;99.90;;;;;;5112836;28;20719;-82
2023/01/09 07:01:26;;;;;;;25.00;17.45;;;7.40;99.90;;;;;;5112064;28;20200;-84
2023/01/09 07:03:51;;;;;;;26.63;18.90;;;7.40;99.90;;;;;;5109919;28;20249;-85
2023/01/09 07:06:18;;;;;;;29.43;17.80;;;7.40;99.90;;;;;;5112599;28;20176;-84
2023/01/09 07:08:44;;;;;;;28.42;18.63;;;7.40;99.90;;;;;;5112610;28;20195;-82
2023/01/09 07:11:10;;;;;;;29.23;17.93;;;7.40;99.90;;;;;;5114099;28;20533;-81
2023/01/09 07:13:37;;;;;;;27.77;18.60;;;7.50;99.90;;;;;;5103623;28;20207;-81
2023/01/09 07:16:04;;;;;;;26.27;17.08;;;7.50;99.90;;;;;;5098098;28;20853;-82
2023/01/09 07:18:30;;;;;;;26.52;18.60;;;7.50;99.90;;;;;;5111337;28;20257;-81
2023/01/09 07:20:56;;;;;;;31.07;22.40;;;7.50;99.90;;;;;;5101678;28;20189;-81
2023/01/09 07:23:21;;;;;;;29.97;20.20;;;7.50;99.90;;;;;;5100318;28;20544;-82
2023/01/09 07:25:49;;;;;;;29.30;19.70;;;7.50;99.90;;;;;;5098045;28;20590;-82
2023/01/09 07:28:15;;;;;;;34.20;19.77;;;7.50;99.90;;;;;;5108904;28;20691;-82
2023/01/09 07:30:41;;;;;;;24.87;18.53;;;7.60;99.90;;;;;;5101594;28;20191;-82
2023/01/09 07:33:07;;;;;;;26.87;18.90;;;7.60;99.90;;;;;;5102183;28;20204;-81
2023/01/09 07:35:33;;;;;;;26.90;18.93;;;7.60;99.90;;;;;;5107762;28;20485;-82
2023/01/09 07:37:58;;;;;;;28.73;18.67;;;7.70;99.90;;;;;;5114994;28;20191;-83
2023/01/09 07:40:25;;;;;;;30.13;20.73;;;7.70;99.90;;;;;;5116397;28;20167;-82
2023/01/09 07:42:54;;;;;;;27.00;18.80;;;7.70;99.90;;;;;;5107880;28;20196;-82
2023/01/09 07:45:20;;;;;;;30.08;19.15;;;7.70;99.90;;;;;;5097196;28;20522;-82
2023/01/09 07:47:46;;;;;;;29.63;19.37;;;7.80;99.90;;;;;;5096547;28;20209;-83
2023/01/09 07:50:11;;;;;;;35.87;20.70;;;7.80;99.90;;;;;;5105643;28;20618;-83
2023/01/09 07:52:37;;;;;;;26.17;19.60;;;7.80;99.90;;;;;;5097447;28;20204;-82
2023/01/09 07:55:03;;;;;;;30.20;20.60;;;7.90;99.90;;;;;;5093045;28;20456;-83
2023/01/09 07:57:29;;;;;;;28.57;18.47;;;7.90;99.90;;;;;;5097344;28;20216;-84
2023/01/09 07:59:55;;;;;;;26.73;17.88;;;7.90;99.90;;;;;;5104475;28;20475;-84
2023/01/09 08:02:21;;;;;;;30.80;19.20;;;7.90;99.90;;;;;;5099525;28;20201;-81
2023/01/09 08:04:47;;;;;;;26.23;18.43;;;7.90;99.90;;;;;;5109421;28;20671;-82
2023/01/09 08:07:12;;;;;;;29.07;18.90;;;8.00;99.90;;;;;;5100787;28;20492;-82
2023/01/09 08:09:38;;;;;;;26.80;19.40;;;8.00;99.90;;;;;;5072560;28;20184;-83
2023/01/09 08:12:04;;;;;;;28.03;18.10;;;8.00;99.90;;;;;;5071177;28;20599;-81
2023/01/09 08:14:31;;;;;;;26.27;17.70;;;8.10;99.90;;;;;;5078158;28;20188;-81
2023/01/09 08:16:56;;;;;;;31.13;19.00;;;8.10;99.90;;;;;;5072952;28;20207;-81
2023/01/09 08:19:22;;;;;;;31.23;19.23;;;8.20;99.90;;;;;;5072215;28;20247;-81
2023/01/09 08:21:48;;;;;;;27.85;18.67;;;8.20;99.90;;;;;;5071599;28;20198;-82
2023/01/09 08:24:14;;;;;;;38.83;22.48;;;8.20;99.90;;;;;;5072534;28;20223;-82
2023/01/09 08:26:40;;;;;;;28.73;18.80;;;8.20;99.90;;;;;;5096793;28;20211;-81
2023/01/09 08:29:06;;;;;;;24.70;15.30;;;8.30;99.90;;;;;;5098625;28;20191;-81
2023/01/09 08:31:31;;;;;;;31.50;19.50;;;8.30;99.90;;;;;;5100491;28;20176;-82
2023/01/09 08:33:57;;;;;;;31.13;19.47;;;8.30;99.90;;;;;;5094315;28;20596;-83
2023/01/09 08:36:23;;;;;;;27.93;17.40;;;8.30;99.90;;;;;;5105456;28;20189;-82
2023/01/09 08:38:48;;;;;;;27.43;18.83;;;8.40;99.90;;;;;;5107825;28;20220;-81
2023/01/09 08:49:27;;;;;;;32.33;19.25;;;8.50;99.90;;;;;;5096041;28;20198;-83
2023/01/09 08:51:52;;;;;;;33.67;20.53;;;8.50;99.90;;;;;;5099170;28;20187;-83
2023/01/09 08:54:18;;;;;;;24.37;17.00;;;8.50;99.90;;;;;;5101217;28;20309;-82
2023/01/09 08:56:44;;;;;;;31.97;19.30;;;8.40;99.90;;;;;;5094705;28;20653;-83
2023/01/09 08:59:10;;;;;;;31.60;20.93;;;8.50;99.90;;;;;;5103975;28;20239;-82
2023/01/09 09:01:35;;;;;;;28.90;21.00;;;8.40;99.90;;;;;;5100024;28;20191;-82
2023/01/09 09:04:04;;;;;;;37.70;22.77;;;8.40;99.90;;;;;;5099534;28;20476;-82
2023/01/09 09:06:30;;;;;;;35.50;22.23;;;8.30;99.90;;;;;;5101363;28;20553;-82
2023/01/09 09:08:56;;;;;;;33.83;21.90;;;8.20;99.90;;;;;;5099323;27;20303;-82
2023/01/09 09:11:22;;;;;;;30.03;20.30;;;8.20;99.90;;;;;;5101750;28;20502;-83
2023/01/09 09:13:47;;;;;;;36.57;24.80;;;8.10;99.90;;;;;;5101965;28;20933;-82
2023/01/09 09:16:13;;;;;;;31.93;23.67;;;8.10;99.90;;;;;;5100109;28;20184;-83
2023/01/09 09:18:39;;;;;;;34.50;24.10;;;8.10;99.90;;;;;;5103724;28;20230;-83
2023/01/09 09:21:05;;;;;;;31.27;23.33;;;8.10;99.90;;;;;;5104462;28;20176;-82
2023/01/09 09:23:30;;;;;;;31.67;22.53;;;8.00;99.90;;;;;;5099808;28;20668;-83
2023/01/09 09:25:56;;;;;;;35.13;21.83;;;8.00;99.90;;;;;;5101643;28;20523;-82
2023/01/09 09:28:21;;;;;;;31.27;22.57;;;7.90;99.90;;;;;;5095694;28;20204;-83
2023/01/09 09:30:47;;;;;;;36.67;24.50;;;7.90;99.90;;;;;;5105680;28;20176;-83
2023/01/09 09:33:13;;;;;;;37.70;24.47;;;8.00;99.90;;;;;;5093859;28;20700;-82
2023/01/09 09:35:39;;;;;;;36.80;23.70;;;8.00;99.90;;;;;;5100729;28;20221;-83
2023/01/09 09:38:04;;;;;;;37.80;23.87;;;7.90;99.90;;;;;;5104068;28;20443;-83
2023/01/09 09:40:46;;;;;;;31.27;20.60;;;7.90;99.90;;;;;;5095867;28;20233;-82
2023/01/09 09:46:55;;;;;;;39.05;26.63;;;7.90;99.90;;;;;;5106416;28;20175;-82
2023/01/09 09:49:52;;;;;;;30.05;20.20;;;7.80;99.90;;;;;;5103721;28;20183;-83
2023/01/09 09:52:30;;;;;;;31.65;22.23;;;7.80;99.90;;;;;;5094876;28;20200;-83
2023/01/09 09:54:59;;;;;;;34.83;23.95;;;7.70;99.90;;;;;;5105295;28;20766;-83
2023/01/09 09:57:32;;;;;;;32.05;22.80;;;7.70;99.90;;;;;;5106276;28;20203;-83
2023/01/09 09:59:59;;;;;;;44.53;26.17;;;7.70;99.90;;;;;;5090045;28;20226;-83
2023/01/09 10:02:40;;;;;;;34.33;24.10;;;7.70;99.90;;;;;;5095307;28;20191;-83
2023/01/09 10:05:14;;;;;;;45.00;27.13;;;7.80;99.90;;;;;;5107195;28;20172;-83
2023/01/09 10:07:46;;;;;;;38.65;27.13;;;7.80;99.90;;;;;;5104291;28;20196;-84
2023/01/09 10:10:32;;;;;;;34.60;23.60;;;7.90;99.90;;;;;;5101599;28;20183;-82
2023/01/09 10:12:59;;;;;;;36.65;22.63;;;7.90;99.90;;;;;;5101573;28;20287;-83
2023/01/09 10:15:49;;;;;;;40.78;26.65;;;7.90;99.90;;;;;;5102248;28;20229;-84
2023/01/09 10:18:20;;;;;;;36.60;23.38;;;7.90;99.90;;;;;;5102228;28;20273;-83
2023/01/09 10:20:54;;;;;;;35.53;24.20;;;8.00;99.90;;;;;;5099726;28;20640;-84
2023/01/09 10:23:37;;;;;;;41.33;24.00;;;8.00;99.90;;;;;;5101541;28;20191;-83
2023/01/09 10:26:35;;;;;;;37.33;23.67;;;8.00;99.90;;;;;;5092033;28;20172;-83
2023/01/09 10:29:07;;;;;;;36.58;24.05;;;7.90;99.90;;;;;;5096740;28;20211;-84
2023/01/09 10:32:06;;;;;;;34.83;23.60;;;7.90;99.90;;;;;;5101270;28;20190;-83
2023/01/09 10:34:49;;;;;;;34.83;23.70;;;7.90;99.90;;;;;;5109288;28;20582;-85
2023/01/09 10:37:40;;;;;;;42.30;22.70;;;7.90;99.90;;;;;;5104922;28;20200;-84
2023/01/09 10:40:24;;;;;;;32.97;22.80;;;8.00;99.90;;;;;;5094359;28;20311;-83
2023/01/09 10:43:03;;;;;;;35.40;23.02;;;8.00;99.90;;;;;;5099753;28;20257;-85
2023/01/09 10:45:38;;;;;;;42.35;24.77;;;8.10;99.90;;;;;;5102776;28;20182;-84
2023/01/09 10:48:16;;;;;;;36.90;24.17;;;8.10;99.90;;;;;;5096032;28;20680;-85
2023/01/09 10:50:44;;;;;;;33.65;22.70;;;8.20;99.90;;;;;;5104737;28;20176;-83
2023/01/09 10:53:37;;;;;;;34.53;21.73;;;8.30;99.90;;;;;;5105483;28;20565;-84
2023/01/09 10:56:13;;;;;;;34.85;22.20;;;8.30;99.90;;;;;;5100534;28;20726;-84
2023/01/09 10:58:39;;;;;;;34.55;23.27;;;8.30;99.90;;;;;;5104965;28;20220;-85
2023/01/09 11:01:06;;;;;;;30.33;20.87;;;8.40;99.90;;;;;;5098388;28;20625;-84
2023/01/09 11:03:32;;;;;;;33.50;21.50;;;8.30;99.90;;;;;;5106240;28;20460;-84
2023/01/09 11:05:59;;;;;;;34.03;20.87;;;8.30;99.90;;;;;;5104466;28;20179;-83
2023/01/09 11:08:40;;;;;;;33.58;23.40;;;8.30;99.90;;;;;;5101682;28;20543;-85
2023/01/09 11:11:08;;;;;;;34.00;21.23;;;8.30;99.90;;;;;;5101635;28;20172;-85
2023/01/09 11:13:37;;;;;;;34.63;22.30;;;8.30;99.90;;;;;;5104630;28;20207;-84
2023/01/09 11:16:16;;;;;;;39.65;20.90;;;8.30;99.90;;;;;;5100926;28;20183;-84
2023/01/09 11:18:57;;;;;;;30.92;20.98;;;8.40;99.90;;;;;;5106513;28;20683;-84
2023/01/09 11:21:36;;;;;;;33.03;21.92;;;8.50;99.90;;;;;;5104675;28;20175;-83
2023/01/09 11:24:18;;;;;;;29.42;17.50;;;8.60;99.90;;;;;;5108492;28;20206;-84
2023/01/09 11:26:45;;;;;;;33.30;21.85;;;8.70;99.90;;;;;;5100973;28;20542;-85
2023/01/09 11:29:15;;;;;;;29.75;20.25;;;8.70;99.90;;;;;;5103492;28;20204;-85
2023/01/09 11:31:51;;;;;;;28.88;21.23;;;8.70;99.90;;;;;;5100154;28;20711;-85
2023/01/09 11:34:19;;;;;;;28.95;20.95;;;8.70;99.90;;;;;;5103789;28;20194;-85
2023/01/09 11:36:45;;;;;;;31.52;20.92;;;8.80;99.90;;;;;;5107367;28;20230;-85
2023/01/09 11:39:24;;;;;;;29.33;20.30;;;8.80;99.90;;;;;;5100917;28;20268;-83
2023/01/09 11:41:59;;;;;;;33.42;21.50;;;8.80;99.90;;;;;;5102787;28;20188;-85
2023/01/09 11:44:30;;;;;;;28.80;18.58;;;8.90;99.90;;;;;;5110067;28;20175;-85
2023/01/09 11:46:57;;;;;;;31.90;21.33;;;8.80;99.90;;;;;;5107287;28;20184;-84
2023/01/09 11:49:25;;;;;;;29.77;21.25;;;8.90;99.90;;;;;;5094274;28;20188;-87
2023/01/09 11:52:15;;;;;;;30.67;19.73;;;8.90;99.90;;;;;;5101219;28;20210;-84
2023/01/09 11:54:49;;;;;;;27.55;17.65;;;8.90;99.90;;;;;;5092009;28;20236;-84
2023/01/09 11:57:20;;;;;;;29.38;19.45;;;8.90;99.90;;;;;;5096816;28;20313;-84
2023/01/09 11:59:45;;;;;;;26.60;17.92;;;8.90;99.90;;;;;;5100731;28;20993;-83
2023/01/09 12:02:30;;;;;;;25.67;18.30;;;9.00;99.90;;;;;;5098865;28;20249;-84
2023/01/09 12:05:04;;;;;;;27.98;19.02;;;9.00;99.90;;;;;;5099622;28;20433;-82
2023/01/09 12:07:51;;;;;;;23.73;17.02;;;8.90;99.90;;;;;;5103241;28;20192;-83
2023/01/09 12:10:41;;;;;;;23.77;17.13;;;8.90;99.90;;;;;;5104082;28;20176;-83
2023/01/09 12:13:28;;;;;;;27.58;20.38;;;8.90;99.90;;;;;;5101776;28;20204;-82
2023/01/09 12:16:06;;;;;;;24.80;17.85;;;8.90;99.90;;;;;;5104420;28;20198;-84
2023/01/09 12:18:38;;;;;;;24.02;17.67;;;8.90;99.90;;;;;;5106820;28;20219;-85
2023/01/09 12:21:31;;;;;;;28.42;18.00;;;8.90;99.90;;;;;;5101991;28;20187;-84
2023/01/09 12:24:09;;;;;;;27.23;18.40;;;8.80;99.90;;;;;;5099832;28;20203;-85
2023/01/09 12:26:56;;;;;;;27.00;18.23;;;8.90;99.90;;;;;;5096641;28;20500;-85
2023/01/09 12:29:34;;;;;;;26.92;17.83;;;8.90;99.90;;;;;;5091103;28;20219;-83
2023/01/09 12:32:05;;;;;;;29.63;18.48;;;9.00;99.90;;;;;;5093659;28;20681;-85
2023/01/09 12:34:59;;;;;;;24.80;19.02;;;9.00;99.90;;;;;;5096399;28;20185;-85
2023/01/09 12:37:28;;;;;;;25.50;18.20;;;9.00;99.90;;;;;;5097766;28;20195;-85
2023/01/09 12:40:17;;;;;;;34.28;20.35;;;9.00;99.90;;;;;;5102707;28;20207;-86
2023/01/09 12:42:58;;;;;;;27.02;18.05;;;9.00;99.90;;;;;;5093849;28;20200;-84
2023/01/09 12:45:48;;;;;;;26.50;19.65;;;9.10;99.90;;;;;;5097872;28;20175;-84
2023/01/09 12:48:14;;;;;;;24.50;17.60;;;9.00;99.90;;;;;;5098250;28;20775;-85
2023/01/09 12:51:23;;;;;;;28.20;18.07;;;9.10;99.90;;;;;;5102072;28;20255;-82
2023/01/09 12:54:04;;;;;;;27.70;19.00;;;9.10;99.90;;;;;;5081848;28;20224;-84
2023/01/09 12:56:38;;;;;;;32.67;19.17;;;9.10;99.90;;;;;;5098008;28;20687;-83
2023/01/09 12:59:29;;;;;;;27.40;18.40;;;9.10;99.90;;;;;;5098065;28;20521;-83
2023/01/09 13:02:19;;;;;;;27.52;20.60;;;9.10;99.90;;;;;;5091887;28;20658;-82
2023/01/09 13:05:01;;;;;;;32.00;21.40;;;9.10;99.90;;;;;;5097932;28;20598;-83
2023/01/09 13:07:33;;;;;;;27.83;18.80;;;9.10;99.90;;;;;;5095076;28;20207;-82